sensor_id;sensor_type;location;lat;lon;timestamp;pressure;altitude;pressure_sealevel;temperature;humidity
47763;BME280;33526;42.690;23.322;2023-11-18T00:01:43;94397.84;;;5.96;100.00
47763;BME280;33526;42.690;23.322;2023-11-18T00:04:08;94401.06;;;5.94;100.00
47763;BME280;33526;42.690;23.322;2023-11-18T00:06:40;94403.06;;;5.93;100.00
47763;BME280;33526;42.690;23.322;2023-11-18T00:09:05;94415.63;;;5.98;100.00
47763;BME280;33526;42.690;23.322;2023-11-18T00:11:31;94404.22;;;5.83;100.00
47763;BME280;33526;42.690;23.322;2023-11-18T00:13:56;94401.00;;;5.85;100.00
47763;BME280;33526;42.690;23.322;2023-11-18T00:16:22;94400.38;;;5.81;100.00
47763;BME280;33526;42.690;23.322;2023-11-18T00:18:47;94422.84;;;5.73;100.00
47763;BME280;33526;42.690;23.322;2023-11-18T00:21:13;94437.09;;;5.63;100.00
47763;BME280;33526;42.690;23.322;2023-11-18T00:23:38;94444.97;;;5.64;100.00
47763;BME280;33526;42.690;23.322;2023-11-18T00:26:04;94428.47;;;5.61;100.00
47763;BME280;33526;42.690;23.322;2023-11-18T00:28:32;94418.13;;;5.61;100.00
47763;BME280;33526;42.690;23.322;2023-11-18T00:30:57;94401.16;;;5.59;100.00
47763;BME280;33526;42.690;23.322;2023-11-18T00:33:22;94384.97;;;5.58;100.00
47763;BME280;33526;42.690;23.322;2023-11-18T00:35:48;94404.25;;;5.61;100.00
47763;BME280;33526;42.690;23.322;2023-11-18T00:38:13;94400.41;;;5.59;100.00
47763;BME280;33526;42.690;23.322;2023-11-18T00:40:38;94387.63;;;5.61;100.00
47763;BME280;33526;42.690;23.322;2023-11-18T00:43:04;94405.16;;;5.58;100.00
47763;BME280;33526;42.690;23.322;2023-11-18T00:45:29;94404.25;;;5.61;100.00
47763;BME280;33526;42.690;23.322;2023-11-18T00:47:55;94408.53;;;5.53;100.00
47763;BME280;33526;42.690;23.322;2023-11-18T00:50:20;94418.13;;;5.61;100.00
47763;BME280;33526;42.690;23.322;2023-11-18T00:52:46;94411.63;;;5.55;100.00
47763;BME280;33526;42.690;23.322;2023-11-18T00:55:13;94412.22;;;5.50;100.00
47763;BME280;33526;42.690;23.322;2023-11-18T00:57:38;94422.19;;;5.47;100.00
47763;BME280;33526;42.690;23.322;2023-11-18T01:00:07;94411.44;;;5.49;100.00
47763;BME280;33526;42.690;23.322;2023-11-18T01:02:33;94409.56;;;5.46;100.00
47763;BME280;33526;42.690;23.322;2023-11-18T01:04:59;94415.75;;;5.50;100.00
47763;BME280;33526;42.690;23.322;2023-11-18T01:07:24;94415.88;;;5.47;100.00
47763;BME280;33526;42.690;23.322;2023-11-18T01:09:49;94426.97;;;5.47;100.00
47763;BME280;33526;42.690;23.322;2023-11-18T01:12:15;94427.72;;;5.47;100.00
47763;BME280;33526;42.690;23.322;2023-11-18T01:14:40;94450.63;;;5.39;100.00
47763;BME280;33526;42.690;23.322;2023-11-18T01:17:07;94440.19;;;5.43;100.00
47763;BME280;33526;42.690;23.322;2023-11-18T01:19:32;94448.44;;;5.33;100.00
47763;BME280;33526;42.690;23.322;2023-11-18T01:21:58;94430.81;;;5.27;100.00
47763;BME280;33526;42.690;23.322;2023-11-18T01:24:24;94442.38;;;5.26;100.00
47763;BME280;33526;42.690;23.322;2023-11-18T01:26:49;94434.06;;;5.26;100.00
47763;BME280;33526;42.690;23.322;2023-11-18T01:29:14;94440.38;;;5.26;100.00
47763;BME280;33526;42.690;23.322;2023-11-18T01:31:40;94431.84;;;5.21;100.00
47763;BME280;33526;42.690;23.322;2023-11-18T01:34:06;94433.25;;;5.25;100.00
47763;BME280;33526;42.690;23.322;2023-11-18T01:36:32;94437.66;;;5.13;100.00
47763;BME280;33526;42.690;23.322;2023-11-18T01:38:58;94449.75;;;5.07;100.00
47763;BME280;33526;42.690;23.322;2023-11-18T01:41:23;94444.00;;;5.01;100.00
47763;BME280;33526;42.690;23.322;2023-11-18T01:43:48;94441.09;;;5.05;100.00
47763;BME280;33526;42.690;23.322;2023-11-18T01:46:14;94448.41;;;4.98;100.00
47763;BME280;33526;42.690;23.322;2023-11-18T01:48:41;94439.78;;;4.96;100.00
47763;BME280;33526;42.690;23.322;2023-11-18T01:51:07;94446.47;;;4.86;100.00
47763;BME280;33526;42.690;23.322;2023-11-18T01:53:35;94441.50;;;4.81;100.00
47763;BME280;33526;42.690;23.322;2023-11-18T01:56:02;94430.09;;;4.79;100.00
47763;BME280;33526;42.690;23.322;2023-11-18T01:58:27;94431.41;;;4.87;100.00
47763;BME280;33526;42.690;23.322;2023-11-18T02:00:56;94432.50;;;4.77;100.00
47763;BME280;33526;42.690;23.322;2023-11-18T02:03:21;94434.97;;;4.75;100.00
47763;BME280;33526;42.690;23.322;2023-11-18T02:05:46;94426.44;;;4.69;100.00
47763;BME280;33526;42.690;23.322;2023-11-18T02:08:12;94431.44;;;4.62;100.00
47763;BME280;33526;42.690;23.322;2023-11-18T02:13:23;94439.44;;;4.59;100.00
47763;BME280;33526;42.690;23.322;2023-11-18T02:15:51;94440.88;;;4.51;100.00
47763;BME280;33526;42.690;23.322;2023-11-18T02:18:17;94435.31;;;4.51;100.00
47763;BME280;33526;42.690;23.322;2023-11-18T02:20:43;94445.66;;;4.38;100.00
47763;BME280;33526;42.690;23.322;2023-11-18T02:23:09;94441.41;;;4.46;100.00
47763;BME280;33526;42.690;23.322;2023-11-18T02:28:04;94449.28;;;4.35;100.00
47763;BME280;33526;42.690;23.322;2023-11-18T02:30:29;94436.78;;;4.30;100.00
47763;BME280;33526;42.690;23.322;2023-11-18T02:33:03;94432.38;;;4.33;100.00
47763;BME280;33526;42.690;23.322;2023-11-18T02:35:34;94440.13;;;4.38;100.00
47763;BME280;33526;42.690;23.322;2023-11-18T02:38:02;94442.31;;;4.30;100.00
47763;BME280;33526;42.690;23.322;2023-11-18T02:40:33;94447.63;;;4.25;100.00
47763;BME280;33526;42.690;23.322;2023-11-18T02:43:00;94447.19;;;4.26;100.00
47763;BME280;33526;42.690;23.322;2023-11-18T02:45:26;94455.59;;;4.22;100.00
47763;BME280;33526;42.690;23.322;2023-11-18T02:47:52;94453.38;;;4.17;100.00
47763;BME280;33526;42.690;23.322;2023-11-18T02:50:22;94460.03;;;4.07;100.00
47763;BME280;33526;42.690;23.322;2023-11-18T02:52:47;94460.03;;;4.07;100.00
47763;BME280;33526;42.690;23.322;2023-11-18T02:55:13;94473.28;;;4.12;100.00
47763;BME280;33526;42.690;23.322;2023-11-18T02:57:39;94468.53;;;4.00;100.00
47763;BME280;33526;42.690;23.322;2023-11-18T03:00:04;94469.63;;;4.02;100.00
47763;BME280;33526;42.690;23.322;2023-11-18T03:02:30;94465.19;;;4.05;100.00
47763;BME280;33526;42.690;23.322;2023-11-18T03:04:58;94472.75;;;4.05;100.00
47763;BME280;33526;42.690;23.322;2023-11-18T03:07:24;94492.19;;;3.88;100.00
47763;BME280;33526;42.690;23.322;2023-11-18T03:09:52;94479.59;;;3.87;100.00
47763;BME280;33526;42.690;23.322;2023-11-18T03:12:17;94476.94;;;3.83;100.00
47763;BME280;33526;42.690;23.322;2023-11-18T03:14:42;94477.16;;;3.89;100.00
47763;BME280;33526;42.690;23.322;2023-11-18T03:17:08;94479.47;;;3.91;100.00
47763;BME280;33526;42.690;23.322;2023-11-18T03:19:35;94489.19;;;3.82;100.00
47763;BME280;33526;42.690;23.322;2023-11-18T03:22:00;94500.44;;;3.75;100.00
47763;BME280;33526;42.690;23.322;2023-11-18T03:24:26;94491.16;;;3.69;100.00
47763;BME280;33526;42.690;23.322;2023-11-18T03:26:54;94493.22;;;3.65;100.00
47763;BME280;33526;42.690;23.322;2023-11-18T03:29:19;94490.00;;;3.54;100.00
47763;BME280;33526;42.690;23.322;2023-11-18T03:31:44;94498.28;;;3.54;100.00
47763;BME280;33526;42.690;23.322;2023-11-18T03:34:13;94491.75;;;3.48;100.00
47763;BME280;33526;42.690;23.322;2023-11-18T03:36:38;94495.63;;;3.50;100.00
47763;BME280;33526;42.690;23.322;2023-11-18T03:39:04;94507.44;;;3.51;100.00
47763;BME280;33526;42.690;23.322;2023-11-18T03:41:29;94494.16;;;3.45;100.00
47763;BME280;33526;42.690;23.322;2023-11-18T03:43:55;94499.69;;;3.45;100.00
47763;BME280;33526;42.690;23.322;2023-11-18T03:46:20;94510.59;;;3.36;100.00
47763;BME280;33526;42.690;23.322;2023-11-18T03:48:45;94511.81;;;3.35;100.00
47763;BME280;33526;42.690;23.322;2023-11-18T03:51:11;94518.09;;;3.36;100.00
47763;BME280;33526;42.690;23.322;2023-11-18T03:53:36;94501.03;;;3.24;100.00
47763;BME280;33526;42.690;23.322;2023-11-18T03:56:01;94480.31;;;3.16;100.00
47763;BME280;33526;42.690;23.322;2023-11-18T03:58:27;94482.84;;;3.11;100.00
47763;BME280;33526;42.690;23.322;2023-11-18T04:00:52;94484.75;;;3.14;100.00
47763;BME280;33526;42.690;23.322;2023-11-18T04:03:18;94505.81;;;3.08;100.00
47763;BME280;33526;42.690;23.322;2023-11-18T04:05:44;94504.78;;;3.01;100.00
47763;BME280;33526;42.690;23.322;2023-11-18T04:08:09;94528.78;;;3.04;100.00
47763;BME280;33526;42.690;23.322;2023-11-18T04:10:34;94512.38;;;2.97;100.00
47763;BME280;33526;42.690;23.322;2023-11-18T04:13:00;94533.09;;;3.05;100.00
47763;BME280;33526;42.690;23.322;2023-11-18T04:15:25;94520.59;;;3.01;100.00
47763;BME280;33526;42.690;23.322;2023-11-18T04:17:52;94521.16;;;3.09;100.00
47763;BME280;33526;42.690;23.322;2023-11-18T04:20:17;94530.66;;;3.08;100.00
47763;BME280;33526;42.690;23.322;2023-11-18T04:22:43;94524.28;;;3.11;100.00
47763;BME280;33526;42.690;23.322;2023-11-18T04:25:09;94526.88;;;3.01;100.00
47763;BME280;33526;42.690;23.322;2023-11-18T04:27:35;94519.94;;;3.10;100.00
47763;BME280;33526;42.690;23.322;2023-11-18T04:30:00;94518.06;;;3.06;100.00
47763;BME280;33526;42.690;23.322;2023-11-18T04:32:25;94513.75;;;3.05;100.00
47763;BME280;33526;42.690;23.322;2023-11-18T04:34:52;94522.72;;;3.10;100.00
47763;BME280;33526;42.690;23.322;2023-11-18T04:37:17;94530.66;;;3.08;100.00
47763;BME280;33526;42.690;23.322;2023-11-18T04:39:43;94546.88;;;3.05;100.00
47763;BME280;33526;42.690;23.322;2023-11-18T04:42:08;94531.44;;;3.08;100.00
47763;BME280;33526;42.690;23.322;2023-11-18T04:44:33;94532.41;;;3.01;100.00
47763;BME280;33526;42.690;23.322;2023-11-18T04:46:59;94538.69;;;3.02;100.00
47763;BME280;33526;42.690;23.322;2023-11-18T04:49:26;94537.06;;;3.04;100.00
47763;BME280;33526;42.690;23.322;2023-11-18T04:51:51;94560.19;;;2.94;100.00
47763;BME280;33526;42.690;23.322;2023-11-18T04:54:16;94544.47;;;2.91;100.00
47763;BME280;33526;42.690;23.322;2023-11-18T04:56:42;94540.53;;;2.92;100.00
47763;BME280;33526;42.690;23.322;2023-11-18T04:59:07;94542.94;;;2.90;100.00
47763;BME280;33526;42.690;23.322;2023-11-18T05:01:32;94539.63;;;2.95;100.00
47763;BME280;33526;42.690;23.322;2023-11-18T05:03:58;94536.63;;;2.90;100.00
47763;BME280;33526;42.690;23.322;2023-11-18T05:06:24;94532.56;;;2.94;100.00
47763;BME280;33526;42.690;23.322;2023-11-18T05:08:50;94519.63;;;2.91;100.00
47763;BME280;33526;42.690;23.322;2023-11-18T05:11:15;94517.72;;;2.88;100.00
47763;BME280;33526;42.690;23.322;2023-11-18T05:13:40;94516.94;;;2.87;100.00
47763;BME280;33526;42.690;23.322;2023-11-18T05:16:06;94514.44;;;2.93;100.00
47763;BME280;33526;42.690;23.322;2023-11-18T05:18:31;94514.09;;;2.91;100.00
47763;BME280;33526;42.690;23.322;2023-11-18T05:21:01;94514.44;;;2.93;100.00
47763;BME280;33526;42.690;23.322;2023-11-18T05:23:26;94511.00;;;2.89;100.00
47763;BME280;33526;42.690;23.322;2023-11-18T05:25:54;94521.63;;;2.91;100.00
47763;BME280;33526;42.690;23.322;2023-11-18T05:28:21;94501.78;;;2.96;100.00
47763;BME280;33526;42.690;23.322;2023-11-18T05:30:47;94509.34;;;2.92;100.00
47763;BME280;33526;42.690;23.322;2023-11-18T05:33:12;94507.91;;;2.87;100.00
47763;BME280;33526;42.690;23.322;2023-11-18T05:35:46;94507.22;;;2.83;100.00
47763;BME280;33526;42.690;23.322;2023-11-18T05:38:18;94506.84;;;2.81;100.00
47763;BME280;33526;42.690;23.322;2023-11-18T05:40:46;94507.81;;;2.74;100.00
47763;BME280;33526;42.690;23.322;2023-11-18T05:43:23;94510.84;;;2.80;100.00
47763;BME280;33526;42.690;23.322;2023-11-18T05:45:49;94512.03;;;2.79;100.00
47763;BME280;33526;42.690;23.322;2023-11-18T05:48:33;94520.47;;;2.72;100.00
47763;BME280;33526;42.690;23.322;2023-11-18T05:50:58;94522.03;;;2.73;100.00
47763;BME280;33526;42.690;23.322;2023-11-18T05:53:24;94530.06;;;2.67;100.00
47763;BME280;33526;42.690;23.322;2023-11-18T05:55:49;94528.75;;;2.72;100.00
47763;BME280;33526;42.690;23.322;2023-11-18T05:58:15;94528.94;;;2.81;100.00
47763;BME280;33526;42.690;23.322;2023-11-18T06:00:41;94522.13;;;2.85;100.00
47763;BME280;33526;42.690;23.322;2023-11-18T06:03:06;94527.56;;;2.89;100.00
47763;BME280;33526;42.690;23.322;2023-11-18T06:05:31;94532.66;;;2.91;100.00
47763;BME280;33526;42.690;23.322;2023-11-18T06:08:00;94546.91;;;2.89;100.00
47763;BME280;33526;42.690;23.322;2023-11-18T06:10:25;94536.38;;;2.84;100.00
47763;BME280;33526;42.690;23.322;2023-11-18T06:12:50;94536.72;;;2.86;100.00
47763;BME280;33526;42.690;23.322;2023-11-18T06:15:16;94538.63;;;2.73;100.00
47763;BME280;33526;42.690;23.322;2023-11-18T06:17:44;94546.72;;;2.63;100.00
47763;BME280;33526;42.690;23.322;2023-11-18T06:20:09;94547.56;;;2.60;100.00
47763;BME280;33526;42.690;23.322;2023-11-18T06:22:35;94540.59;;;2.56;100.00
47763;BME280;33526;42.690;23.322;2023-11-18T06:25:01;94537.38;;;2.57;100.00
47763;BME280;33526;42.690;23.322;2023-11-18T06:27:27;94540.50;;;2.59;100.00
47763;BME280;33526;42.690;23.322;2023-11-18T06:29:53;94546.03;;;2.59;100.00
47763;BME280;33526;42.690;23.322;2023-11-18T06:32:19;94539.88;;;2.68;100.00
47763;BME280;33526;42.690;23.322;2023-11-18T06:34:45;94535.69;;;2.80;100.00
47763;BME280;33526;42.690;23.322;2023-11-18T06:37:10;94520.94;;;2.86;100.00
47763;BME280;33526;42.690;23.322;2023-11-18T06:39:40;94525.06;;;2.95;100.00
47763;BME280;33526;42.690;23.322;2023-11-18T06:42:05;94534.28;;;2.88;100.00
47763;BME280;33526;42.690;23.322;2023-11-18T06:44:36;94537.50;;;3.03;100.00
47763;BME280;33526;42.690;23.322;2023-11-18T06:47:01;94543.44;;;3.01;100.00
47763;BME280;33526;42.690;23.322;2023-11-18T06:49:27;94549.66;;;3.05;100.00
47763;BME280;33526;42.690;23.322;2023-11-18T06:51:55;94563.13;;;3.03;100.00
47763;BME280;33526;42.690;23.322;2023-11-18T06:54:20;94547.91;;;2.95;100.00
47763;BME280;33526;42.690;23.322;2023-11-18T06:56:46;94556.84;;;3.03;100.00
47763;BME280;33526;42.690;23.322;2023-11-18T06:59:11;94571.41;;;3.03;100.00
47763;BME280;33526;42.690;23.322;2023-11-18T07:01:40;94558.44;;;3.00;100.00
47763;BME280;33526;42.690;23.322;2023-11-18T07:04:11;94551.03;;;3.14;100.00
47763;BME280;33526;42.690;23.322;2023-11-18T07:06:37;94553.00;;;3.13;100.00
47763;BME280;33526;42.690;23.322;2023-11-18T07:09:03;94560.00;;;3.18;100.00
47763;BME280;33526;42.690;23.322;2023-11-18T07:11:33;94565.19;;;3.16;100.00
47763;BME280;33526;42.690;23.322;2023-11-18T07:13:58;94567.63;;;3.14;100.00
47763;BME280;33526;42.690;23.322;2023-11-18T07:16:24;94572.25;;;3.17;100.00
47763;BME280;33526;42.690;23.322;2023-11-18T07:18:50;94574.34;;;2.96;100.00
47763;BME280;33526;42.690;23.322;2023-11-18T07:21:16;94566.22;;;3.05;100.00
47763;BME280;33526;42.690;23.322;2023-11-18T07:23:41;94576.06;;;3.06;100.00
47763;BME280;33526;42.690;23.322;2023-11-18T07:26:07;94561.72;;;2.95;100.00
47763;BME280;33526;42.690;23.322;2023-11-18T07:28:34;94570.91;;;3.09;100.00
47763;BME280;33526;42.690;23.322;2023-11-18T07:31:01;94581.50;;;3.10;100.00
47763;BME280;33526;42.690;23.322;2023-11-18T07:33:29;94591.25;;;2.98;100.00
47763;BME280;33526;42.690;23.322;2023-11-18T07:35:56;94583.13;;;2.91;100.00
47763;BME280;33526;42.690;23.322;2023-11-18T07:38:23;94585.66;;;3.02;100.00
47763;BME280;33526;42.690;23.322;2023-11-18T07:40:48;94575.44;;;2.99;100.00
47763;BME280;33526;42.690;23.322;2023-11-18T07:43:16;94582.38;;;2.91;100.00
47763;BME280;33526;42.690;23.322;2023-11-18T07:45:42;94575.19;;;2.93;100.00
47763;BME280;33526;42.690;23.322;2023-11-18T07:48:10;94589.88;;;2.90;100.00
47763;BME280;33526;42.690;23.322;2023-11-18T07:50:37;94576.00;;;2.94;100.00
47763;BME280;33526;42.690;23.322;2023-11-18T07:53:02;94585.38;;;2.96;100.00
47763;BME280;33526;42.690;23.322;2023-11-18T07:55:31;94577.44;;;2.98;100.00
47763;BME280;33526;42.690;23.322;2023-11-18T07:57:59;94570.72;;;2.99;100.00
47763;BME280;33526;42.690;23.322;2023-11-18T08:00:24;94577.34;;;3.02;100.00
47763;BME280;33526;42.690;23.322;2023-11-18T08:02:50;94573.75;;;3.05;100.00
47763;BME280;33526;42.690;23.322;2023-11-18T08:05:19;94582.19;;;3.14;100.00
47763;BME280;33526;42.690;23.322;2023-11-18T08:07:45;94564.06;;;2.97;100.00
47763;BME280;33526;42.690;23.322;2023-11-18T08:10:10;94579.00;;;2.99;100.00
47763;BME280;33526;42.690;23.322;2023-11-18T08:12:38;94587.47;;;3.09;100.00
47763;BME280;33526;42.690;23.322;2023-11-18T08:15:03;94566.22;;;3.05;100.00
47763;BME280;33526;42.690;23.322;2023-11-18T08:17:32;94583.91;;;2.92;100.00
47763;BME280;33526;42.690;23.322;2023-11-18T08:19:59;94586.97;;;2.97;100.00
47763;BME280;33526;42.690;23.322;2023-11-18T08:22:24;94592.47;;;2.97;100.00
47763;BME280;33526;42.690;23.322;2023-11-18T08:24:50;94606.78;;;2.92;100.00
47763;BME280;33526;42.690;23.322;2023-11-18T08:27:18;94598.00;;;2.97;100.00
47763;BME280;33526;42.690;23.322;2023-11-18T08:29:44;94590.75;;;3.03;100.00
47763;BME280;33526;42.690;23.322;2023-11-18T08:32:11;94595.50;;;3.03;100.00
47763;BME280;33526;42.690;23.322;2023-11-18T08:34:37;94603.69;;;3.23;100.00
47763;BME280;33526;42.690;23.322;2023-11-18T08:37:05;94610.41;;;3.38;100.00
47763;BME280;33526;42.690;23.322;2023-11-18T08:39:31;94610.00;;;3.23;100.00
47763;BME280;33526;42.690;23.322;2023-11-18T08:41:57;94597.50;;;3.19;100.00
47763;BME280;33526;42.690;23.322;2023-11-18T08:44:22;94598.16;;;3.23;100.00
47763;BME280;33526;42.690;23.322;2023-11-18T08:46:52;94598.25;;;3.19;100.00
47763;BME280;33526;42.690;23.322;2023-11-18T08:49:20;94613.25;;;3.18;100.00
47763;BME280;33526;42.690;23.322;2023-11-18T08:51:48;94602.66;;;3.17;100.00
47763;BME280;33526;42.690;23.322;2023-11-18T08:54:14;94612.50;;;3.18;100.00
47763;BME280;33526;42.690;23.322;2023-11-18T08:56:53;94606.47;;;3.06;100.00
47763;BME280;33526;42.690;23.322;2023-11-18T08:59:22;94600.22;;;3.02;100.00
47763;BME280;33526;42.690;23.322;2023-11-18T09:01:53;94608.00;;;3.08;100.00
47763;BME280;33526;42.690;23.322;2023-11-18T09:04:27;94625.97;;;3.16;100.00
47763;BME280;33526;42.690;23.322;2023-11-18T09:06:53;94601.63;;;3.11;100.00
47763;BME280;33526;42.690;23.322;2023-11-18T09:09:19;94597.28;;;2.93;100.00
47763;BME280;33526;42.690;23.322;2023-11-18T09:11:51;94617.84;;;2.92;100.00
47763;BME280;33526;42.690;23.322;2023-11-18T09:14:16;94593.84;;;2.89;100.00
47763;BME280;33526;42.690;23.322;2023-11-18T09:16:44;94592.41;;;3.01;100.00
47763;BME280;33526;42.690;23.322;2023-11-18T09:19:11;94606.13;;;3.04;100.00
47763;BME280;33526;42.690;23.322;2023-11-18T09:21:36;94605.41;;;3.00;100.00
47763;BME280;33526;42.690;23.322;2023-11-18T09:24:01;94606.63;;;2.99;100.00
47763;BME280;33526;42.690;23.322;2023-11-18T09:26:32;94613.53;;;3.08;100.00
47763;BME280;33526;42.690;23.322;2023-11-18T09:28:58;94594.19;;;3.08;99.82
47763;BME280;33526;42.690;23.322;2023-11-18T09:31:26;94593.00;;;3.09;100.00
47763;BME280;33526;42.690;23.322;2023-11-18T09:33:52;94596.00;;;3.14;100.00
47763;BME280;33526;42.690;23.322;2023-11-18T09:36:18;94596.94;;;3.24;100.00
47763;BME280;33526;42.690;23.322;2023-11-18T09:38:44;94589.97;;;3.36;100.00
47763;BME280;33526;42.690;23.322;2023-11-18T09:41:11;94590.03;;;3.32;98.26
47763;BME280;33526;42.690;23.322;2023-11-18T09:43:38;94605.59;;;3.26;100.00
47763;BME280;33526;42.690;23.322;2023-11-18T09:46:16;94614.16;;;3.15;98.49
47763;BME280;33526;42.690;23.322;2023-11-18T09:48:49;94603.19;;;3.12;100.00
47763;BME280;33526;42.690;23.322;2023-11-18T09:51:21;94601.28;;;3.25;99.95
47763;BME280;33526;42.690;23.322;2023-11-18T09:53:48;94618.44;;;3.33;99.77
47763;BME280;33526;42.690;23.322;2023-11-18T09:56:31;94589.00;;;3.10;97.99
47763;BME280;33526;42.690;23.322;2023-11-18T09:59:52;94591.44;;;3.08;96.94
47763;BME280;33526;42.690;23.322;2023-11-18T10:02:02;94587.97;;;3.03;98.67
47763;BME280;33526;42.690;23.322;2023-11-18T10:04:28;94565.53;;;3.18;100.00
47763;BME280;33526;42.690;23.322;2023-11-18T10:06:56;94582.09;;;3.18;99.99
47763;BME280;33526;42.690;23.322;2023-11-18T10:09:25;94577.09;;;3.29;97.74
47763;BME280;33526;42.690;23.322;2023-11-18T10:12:02;94584.69;;;3.25;96.61
47763;BME280;33526;42.690;23.322;2023-11-18T10:14:31;94587.81;;;3.27;97.09
47763;BME280;33526;42.690;23.322;2023-11-18T10:16:57;94587.28;;;3.32;98.91
47763;BME280;33526;42.690;23.322;2023-11-18T10:19:22;94570.69;;;3.32;96.37
47763;BME280;33526;42.690;23.322;2023-11-18T10:21:51;94608.28;;;3.30;97.16
47763;BME280;33526;42.690;23.322;2023-11-18T10:24:16;94607.81;;;3.31;96.99
47763;BME280;33526;42.690;23.322;2023-11-18T10:26:45;94590.91;;;3.29;97.58
47763;BME280;33526;42.690;23.322;2023-11-18T10:29:19;94588.31;;;3.38;96.94
47763;BME280;33526;42.690;23.322;2023-11-18T10:31:44;94577.09;;;3.29;96.83
47763;BME280;33526;42.690;23.322;2023-11-18T10:34:13;94597.31;;;3.26;97.37
47763;BME280;33526;42.690;23.322;2023-11-18T10:36:41;94611.97;;;3.39;98.14
47763;BME280;33526;42.690;23.322;2023-11-18T10:39:11;94585.03;;;3.27;95.49
47763;BME280;33526;42.690;23.322;2023-11-18T10:41:42;94608.28;;;3.30;95.53
47763;BME280;33526;42.690;23.322;2023-11-18T10:44:08;94599.72;;;3.24;95.80
47763;BME280;33526;42.690;23.322;2023-11-18T10:46:34;94608.28;;;3.30;97.65
47763;BME280;33526;42.690;23.322;2023-11-18T10:49:01;94601.88;;;3.33;94.18
47763;BME280;33526;42.690;23.322;2023-11-18T10:51:27;94598.94;;;3.23;95.52
47763;BME280;33526;42.690;23.322;2023-11-18T10:53:55;94595.50;;;3.19;97.01
47763;BME280;33526;42.690;23.322;2023-11-18T10:56:26;94595.91;;;3.18;95.72
47763;BME280;33526;42.690;23.322;2023-11-18T11:01:30;94596.78;;;3.15;97.45
47763;BME280;33526;42.690;23.322;2023-11-18T11:03:59;94592.47;;;2.97;96.89
47763;BME280;33526;42.690;23.322;2023-11-18T11:06:25;94596.25;;;3.03;98.70
47763;BME280;33526;42.690;23.322;2023-11-18T11:08:51;94594.78;;;2.99;97.51
47763;BME280;33526;42.690;23.322;2023-11-18T11:11:18;94592.47;;;2.97;97.56
47763;BME280;33526;42.690;23.322;2023-11-18T11:13:46;94595.59;;;2.99;97.24
47763;BME280;33526;42.690;23.322;2023-11-18T11:16:12;94590.66;;;3.07;98.31
47763;BME280;33526;42.690;23.322;2023-11-18T11:18:48;94598.00;;;2.97;96.75
47763;BME280;33526;42.690;23.322;2023-11-18T11:21:20;94582.97;;;2.98;98.21
47763;BME280;33526;42.690;23.322;2023-11-18T11:24:00;94584.44;;;3.03;96.49
47763;BME280;33526;42.690;23.322;2023-11-18T11:31:52;94594.34;;;3.17;98.57
47763;BME280;33526;42.690;23.322;2023-11-18T11:34:25;94580.03;;;3.22;97.90
47763;BME280;33526;42.690;23.322;2023-11-18T11:36:51;94583.13;;;3.24;95.56
47763;BME280;33526;42.690;23.322;2023-11-18T11:39:20;94592.22;;;3.08;95.78
47763;BME280;33526;42.690;23.322;2023-11-18T11:41:55;94580.13;;;3.18;98.35
47763;BME280;33526;42.690;23.322;2023-11-18T11:44:21;94586.44;;;3.19;96.90
47763;BME280;33526;42.690;23.322;2023-11-18T11:46:53;94575.22;;;3.26;99.20
47763;BME280;33526;42.690;23.322;2023-11-18T11:49:21;94576.13;;;3.36;96.11
47763;BME280;33526;42.690;23.322;2023-11-18T11:51:57;94569.31;;;3.40;96.67
47763;BME280;33526;42.690;23.322;2023-11-18T11:54:29;94573.38;;;3.36;96.16
47763;BME280;33526;42.690;23.322;2023-11-18T11:57:01;94568.03;;;3.29;96.93
47763;BME280;33526;42.690;23.322;2023-11-18T12:02:25;94563.19;;;3.33;94.74
47763;BME280;33526;42.690;23.322;2023-11-18T12:04:57;94566.91;;;3.26;95.34
47763;BME280;33526;42.690;23.322;2023-11-18T12:07:31;94573.47;;;3.32;97.17
47763;BME280;33526;42.690;23.322;2023-11-18T12:10:07;94570.84;;;3.41;94.88
47763;BME280;33526;42.690;23.322;2023-11-18T12:12:33;94566.28;;;3.35;95.00
47763;BME280;33526;42.690;23.322;2023-11-18T12:14:59;94575.97;;;3.27;96.89
47763;BME280;33526;42.690;23.322;2023-11-18T12:20:38;94577.44;;;3.31;96.43
47763;BME280;33526;42.690;23.322;2023-11-18T12:23:26;94562.59;;;3.25;97.92
47763;BME280;33526;42.690;23.322;2023-11-18T12:25:52;94567.75;;;3.39;97.78
47763;BME280;33526;42.690;23.322;2023-11-18T12:28:25;94571.72;;;3.38;95.93
47763;BME280;33526;42.690;23.322;2023-11-18T12:30:53;94562.31;;;3.36;95.21
47763;BME280;33526;42.690;23.322;2023-11-18T12:33:24;94569.13;;;3.48;95.52
47763;BME280;33526;42.690;23.322;2023-11-18T12:40:57;94578.63;;;3.47;95.18
47763;BME280;33526;42.690;23.322;2023-11-18T12:46:11;94566.28;;;3.51;95.21
47763;BME280;33526;42.690;23.322;2023-11-18T12:48:46;94574.94;;;3.37;96.91
47763;BME280;33526;42.690;23.322;2023-11-18T12:51:14;94593.16;;;3.34;96.33
47763;BME280;33526;42.690;23.322;2023-11-18T12:53:50;94580.28;;;3.28;96.11
47763;BME280;33526;42.690;23.322;2023-11-18T12:56:24;94588.84;;;3.17;97.35
47763;BME280;33526;42.690;23.322;2023-11-18T12:58:50;94585.88;;;3.24;98.64
47763;BME280;33526;42.690;23.322;2023-11-18T13:01:16;94607.16;;;3.27;98.02
47763;BME280;33526;42.690;23.322;2023-11-18T13:03:41;94585.47;;;3.25;97.65
47763;BME280;33526;42.690;23.322;2023-11-18T13:06:09;94584.19;;;3.30;97.51
47763;BME280;33526;42.690;23.322;2023-11-18T13:08:37;94580.38;;;3.40;98.11
47763;BME280;33526;42.690;23.322;2023-11-18T13:11:02;94599.53;;;3.48;98.40
47763;BME280;33526;42.690;23.322;2023-11-18T13:13:30;94592.97;;;3.41;99.29
47763;BME280;33526;42.690;23.322;2023-11-18T13:15:57;94602.56;;;3.53;96.77
47763;BME280;33526;42.690;23.322;2023-11-18T13:18:24;94601.78;;;3.36;97.40
47763;BME280;33526;42.690;23.322;2023-11-18T13:20:55;94621.56;;;3.35;99.52